All Spectrum Aviation - Van Nuys Airport - KVNY

HOME

Condor Squadron KVNY Webcam

Visit our Electronics Store

Condor Squadron Webcam - Van Nuys Airport - KVNY
Picture taken: Thu, 09 Jul 2020 00:16:43 -0700
YouTube Channel!    Latest Timelapse Movie    Full Size Image    Regular Size Image    

2020/07/09 06:51 KVNY 090651Z 09005KT 10SM CLR 22/15 A2988 RMK AO2 SLP109 T02170150

HOME

Condor Squadron KVNY Webcam

Visit our Electronics Store